โตเกียว, ประเทศญี่ปุ่น

04:50 PM JST วัน สิงหาคม 31, 2016 (GMT +0900)
Tokyo (Haneda) International | | Change Station

Elev 26 ft 35.55 °N, 139.78 °E | Updated 12 minutes ago

Partly Cloudy
มีเมฆคลุมเป็นส่วนๆ
84 ฟาเรนไฮน์
Feels Like 88 ฟาเรนไฮน์
N
23
ลม ความผันแปร ลม from ทางทิศใต้
Gusts 38 mph

วันนี้
High -- | Low -- ฟาเรนไฮน์
--% Chance of Precip.
Yesterday
High -- | Low -- ฟาเรนไฮน์
Precip. -- นิ้ว
ความดัน 29.56 นิ้ว
ทัศนวิสัย 6.2 ไมล์
เมฆ Few 3000 ft
ดัชนีความร้อน 88 ฟาเรนไฮน์
อุณหภูมิที่อากาศอาจจับตัวเป็นหยาดน้ำค้าง 70 ฟาเรนไฮน์
ความชื้น 62%
Rainfall 0.00 นิ้ว
Snow Depth Not available.
5:12 AM 6:09 PM
เดือนเสี้ยว, 1% visible
SPECI RJTT 310738Z 19020G33KT 9999 FEW030 29/21 Q1001 RMK 1CU030 A2957
ความดัน 29.56 นิ้ว
ทัศนวิสัย 6.2 ไมล์
เมฆ Few 3000 ft
ดัชนีความร้อน 88 ฟาเรนไฮน์
อุณหภูมิที่อากาศอาจจับตัวเป็นหยาดน้ำค้าง 70 ฟาเรนไฮน์
ความชื้น 62%
Rainfall 0.00 นิ้ว
Snow Depth Not available.
5:12 AM 6:09 PM
เดือนเสี้ยว, 1% visible
SPECI RJTT 310738Z 19020G33KT 9999 FEW030 29/21 Q1001 RMK 1CU030 A2957

10-Day Weather Forecast

No radar image for this location.
×

Almanac

ดาราศาสตร์

Aug. 31, 2016 Rise Set
Actual Time
Civil Twilight
Nautical Twilight
Astronomical Twilight
Moon
Length Of Visible Light
ความยาวของวัน
Tomorrow will be .
, % of the Moon is Illuminated

Today's Extremes

Country Highs Country Lows

Community

WunderPhotos

Upload Photos

1,936,038 photos uploaded!

WunderBlog® & News

Nearby

Air Quality

  Air Quality AQ Index Pollutant
Not available.

Snow Depth

Station Depth Elevation

Earthquake Activity

City Distance Mag. Time & Date
Minimum magnitude displayed is 2.5.

Coastal Water Temperatures

สถานที่ อุณหภูมิ

Stations

Nearby Weather Stations

Station Location Temp ลมหนาว อุณหภูมิที่อากาศอาจจับตัวเป็นหยาดน้ำค้าง ความชื้น ลม Precip. Elev ปรับปรุงล่าสุด Type